Time;durP1;ratioP1;P1;durP2;ratioP2;P2;SDS_P1;SDS_P2;PMS_P1;PMS_P2;Temp;Humidity;BMP_temperature;BMP_pressure;BME280_temperature;BME280_humidity;BME280_pressure;Samples;Min_cycle;Max_cycle;Signal;HPM_P1;HPM_P2
2021/01/28 00:00:15;;;;;;;17.17;9.25;;;;;;;-3.53;72.99;95574.47;4942337;29;20038;-94
2021/01/28 00:02:41;;;;;;;14.07;8.40;;;;;;;-145.61;100.00;68426.72;4941076;29;20031;-94
2021/01/28 00:05:08;;;;;;;14.55;8.48;;;;;;;-145.61;100.00;68426.72;4941156;29;20034;-93
2021/01/28 00:07:33;;;;;;;14.07;8.73;;;;;;;-145.61;100.00;68426.72;4941243;29;20031;-94
2021/01/28 00:09:59;;;;;;;13.40;7.18;;;;;;;-145.61;100.00;68426.72;4941050;29;20039;-94
2021/01/28 00:12:24;;;;;;;12.85;7.75;;;;;;;-145.61;100.00;68426.72;4941154;29;20020;-94
2021/01/28 00:14:50;;;;;;;11.57;8.05;;;;;;;-145.61;100.00;68426.72;4941222;29;20032;-94
2021/01/28 00:17:15;;;;;;;11.30;7.40;;;;;;;-145.61;100.00;68426.72;4941197;29;20027;-96
2021/01/28 00:19:41;;;;;;;15.18;7.90;;;;;;;-3.53;72.99;95574.47;4941331;29;20414;-94
2021/01/28 00:22:06;;;;;;;13.63;7.82;;;;;;;-145.61;100.00;68426.72;4941164;29;20122;-93
2021/01/28 00:24:32;;;;;;;10.68;7.03;;;;;;;-145.61;100.00;68426.72;4941140;29;20511;-94
2021/01/28 00:26:57;;;;;;;11.15;6.70;;;;;;;-145.61;100.00;68426.72;4940879;29;20420;-94
2021/01/28 00:29:23;;;;;;;10.85;7.38;;;;;;;-3.53;72.99;95574.47;4941066;29;20031;-96
2021/01/28 00:31:48;;;;;;;10.60;6.82;;;;;;;-145.61;100.00;68426.72;4940759;29;20028;-94
2021/01/28 00:34:14;;;;;;;11.77;6.88;;;;;;;-3.53;72.99;95574.47;4940641;29;20027;-94
2021/01/28 00:36:39;;;;;;;11.65;6.90;;;;;;;-145.61;100.00;68426.72;4936037;29;20024;-95
2021/01/28 00:39:05;;;;;;;9.38;6.30;;;;;;;-3.53;72.99;95574.47;4940862;29;20035;-94
2021/01/28 00:41:30;;;;;;;9.40;6.03;;;;;;;-145.61;100.00;68426.72;4940453;29;20384;-95
2021/01/28 00:43:56;;;;;;;10.35;6.47;;;;;;;-145.61;100.00;68426.72;4940720;29;20031;-95
2021/01/28 00:46:21;;;;;;;14.43;7.13;;;;;;;-145.61;100.00;68426.72;4940518;29;20023;-95
2021/01/28 00:48:48;;;;;;;10.48;6.57;;;;;;;-3.53;72.99;95574.47;4940496;29;20067;-94
2021/01/28 00:51:14;;;;;;;11.05;6.30;;;;;;;-145.61;100.00;68426.72;4956642;29;20024;-94
2021/01/28 00:53:39;;;;;;;11.90;7.05;;;;;;;-145.61;100.00;68426.72;4940579;29;20023;-96
2021/01/28 00:56:05;;;;;;;10.77;6.13;;;;;;;-145.61;100.00;68426.72;4940423;29;20540;-95
2021/01/28 00:58:30;;;;;;;11.25;6.88;;;;;;;-145.61;100.00;68426.72;4939378;29;20035;-94
2021/01/28 01:00:56;;;;;;;9.88;5.85;;;;;;;-145.61;100.00;68426.72;4940090;29;20118;-94
2021/01/28 01:03:23;;;;;;;9.40;5.78;;;;;;;-145.61;100.00;68426.72;4939845;29;20483;-96
2021/01/28 01:05:50;;;;;;;8.45;5.50;;;;;;;-145.61;100.00;68426.72;4955947;29;20130;-96
2021/01/28 01:08:28;;;;;;;9.45;5.82;;;;;;;-145.61;100.00;68426.72;4940270;29;20114;-94
2021/01/28 01:11:09;;;;;;;8.68;5.80;;;;;;;-145.61;100.00;68426.72;4955849;29;20396;-95
2021/01/28 01:13:36;;;;;;;7.88;5.53;;;;;;;-145.61;100.00;68426.72;4955969;29;20031;-93
2021/01/28 01:16:03;;;;;;;9.20;5.80;;;;;;;-145.61;100.00;68426.72;4955715;29;20027;-94
2021/01/28 01:18:31;;;;;;;9.02;5.90;;;;;;;-145.61;100.00;68426.72;4939819;29;20115;-95
2021/01/28 01:20:58;;;;;;;9.52;5.43;;;;;;;-145.61;100.00;68426.72;4955456;28;20028;-95
2021/01/28 01:23:24;;;;;;;8.43;5.88;;;;;;;-145.61;100.00;68426.72;4955612;29;20030;-93
2021/01/28 01:25:50;;;;;;;8.70;5.47;;;;;;;-145.61;100.00;68426.72;4939596;29;20028;-93
2021/01/28 01:28:16;;;;;;;7.35;5.28;;;;;;;-145.61;100.00;68426.72;4955456;29;20377;-95
2021/01/28 01:30:41;;;;;;;7.65;5.07;;;;;;;-145.61;100.00;68426.72;4955543;28;20027;-94
2021/01/28 01:33:07;;;;;;;8.45;5.40;;;;;;;-145.61;100.00;68426.72;4955490;28;20038;-95
2021/01/28 01:35:33;;;;;;;6.75;4.60;;;;;;;-145.61;100.00;68426.72;4939606;29;20031;-94
2021/01/28 01:37:59;;;;;;;7.25;5.13;;;;;;;-145.61;100.00;68426.72;4939416;29;20491;-94
2021/01/28 01:40:58;;;;;;;7.72;5.50;;;;;;;-145.61;100.00;68426.72;4939318;29;20087;-95
2021/01/28 01:43:26;;;;;;;7.65;4.75;;;;;;;-145.61;100.00;68426.72;4898385;29;20098;-94
2021/01/28 01:45:59;;;;;;;8.93;4.75;;;;;;;-145.61;100.00;68426.72;4939359;29;20032;-94
2021/01/28 01:48:29;;;;;;;8.70;4.82;;;;;;;-145.61;100.00;68426.72;4939272;29;20418;-95
2021/01/28 01:51:39;;;;;;;9.13;5.60;;;;;;;-145.61;100.00;68426.72;4955237;29;20472;-95
2021/01/28 01:54:26;;;;;;;8.00;5.78;;;;;;;-145.61;100.00;68426.72;4881960;29;20088;-94
2021/01/28 01:56:57;;;;;;;8.65;5.28;;;;;;;-145.61;100.00;68426.72;4935883;29;20036;-95
2021/01/28 01:59:29;;;;;;;8.02;5.10;;;;;;;-145.61;100.00;68426.72;4939197;29;20494;-95
2021/01/28 02:02:02;;;;;;;9.07;5.63;;;;;;;-145.61;100.00;68426.72;4939053;29;20035;-94
2021/01/28 02:04:29;;;;;;;7.95;5.57;;;;;;;-145.61;100.00;68426.72;4939073;29;20039;-94
2021/01/28 02:07:00;;;;;;;8.32;5.47;;;;;;;-145.61;100.00;68426.72;4939300;29;20023;-96
2021/01/28 02:09:25;;;;;;;8.13;5.20;;;;;;;-145.61;100.00;68426.72;4938817;29;20039;-95
2021/01/28 02:11:51;;;;;;;9.07;5.43;;;;;;;-145.61;100.00;68426.72;4939023;29;20020;-94
2021/01/28 02:14:18;;;;;;;8.98;5.82;;;;;;;-145.61;100.00;68426.72;4939106;29;20059;-94
2021/01/28 02:16:56;;;;;;;6.80;4.50;;;;;;;-145.61;100.00;68426.72;4955058;28;20490;-95
2021/01/28 02:19:30;;;;;;;6.75;5.20;;;;;;;-145.61;100.00;68426.72;4938848;29;20314;-95
2021/01/28 02:21:59;;;;;;;6.50;4.82;;;;;;;-145.61;100.00;68426.72;4938982;29;20024;-94
2021/01/28 02:24:32;;;;;;;8.07;5.15;;;;;;;-145.61;100.00;68426.72;4938878;29;20031;-94
2021/01/28 02:26:59;;;;;;;9.80;5.72;;;;;;;-145.61;100.00;68426.72;4938934;29;20487;-95
2021/01/28 02:29:25;;;;;;;7.53;4.80;;;;;;;-145.61;100.00;68426.72;4938883;29;20039;-93
2021/01/28 02:31:53;;;;;;;8.35;5.35;;;;;;;-145.61;100.00;68426.72;4939037;29;20023;-95
2021/01/28 02:34:21;;;;;;;7.43;4.97;;;;;;;-145.61;100.00;68426.72;4954801;29;20099;-94
2021/01/28 02:36:49;;;;;;;8.77;5.32;;;;;;;-145.61;100.00;68426.72;4954749;28;20044;-93
2021/01/28 02:39:19;;;;;;;6.57;4.95;;;;;;;-145.61;100.00;68426.72;4939204;29;20035;-94
2021/01/28 02:42:06;;;;;;;10.20;5.45;;;;;;;-145.61;100.00;68426.72;4938754;29;20055;-94
2021/01/28 02:44:32;;;;;;;8.13;5.22;;;;;;;-145.61;100.00;68426.72;4938645;29;20138;-94
2021/01/28 02:46:57;;;;;;;9.07;5.22;;;;;;;-145.61;100.00;68426.72;4938734;29;20024;-93
2021/01/28 02:49:22;;;;;;;8.80;4.68;;;;;;;-145.61;100.00;68426.72;4938977;29;20051;-95
2021/01/28 02:51:48;;;;;;;10.23;6.13;;;;;;;-145.61;100.00;68426.72;4938672;29;20034;-95
2021/01/28 02:54:14;;;;;;;7.85;5.18;;;;;;;-145.61;100.00;68426.72;4938683;29;20388;-94
2021/01/28 02:56:39;;;;;;;9.15;5.30;;;;;;;-145.61;100.00;68426.72;4938599;29;20039;-94
2021/01/28 02:59:06;;;;;;;9.70;5.18;;;;;;;-145.61;100.00;68426.72;4938682;29;20039;-93
2021/01/28 03:01:33;;;;;;;9.88;5.50;;;;;;;-145.61;100.00;68426.72;4938502;29;20024;-93
2021/01/28 03:03:59;;;;;;;6.18;4.13;;;;;;;-145.61;100.00;68426.72;4938608;29;20027;-94
2021/01/28 03:06:25;;;;;;;6.63;4.97;;;;;;;-145.61;100.00;68426.72;4938616;29;20024;-95
2021/01/28 03:12:12;;;;;;;6.90;4.80;;;;;;;-145.61;100.00;68426.72;4939664;29;20047;-94
2021/01/28 03:14:37;;;;;;;7.95;4.82;;;;;;;-145.61;100.00;68426.72;4938450;29;20028;-94
2021/01/28 03:17:04;;;;;;;7.15;4.95;;;;;;;-145.61;100.00;68426.72;4938993;29;20020;-94
2021/01/28 03:19:29;;;;;;;9.18;5.10;;;;;;;-145.61;100.00;68426.72;4938468;29;20110;-94
2021/01/28 03:21:55;;;;;;;9.40;5.22;;;;;;;-145.61;100.00;68426.72;4940408;29;20123;-93
2021/01/28 03:24:20;;;;;;;6.65;4.93;;;;;;;-145.61;100.00;68426.72;4941821;29;20122;-94
2021/01/28 03:26:45;;;;;;;7.93;5.38;;;;;;;-145.61;100.00;68426.72;4941857;29;20050;-94
2021/01/28 03:29:13;;;;;;;8.77;5.55;;;;;;;-145.61;100.00;68426.72;4941828;29;20024;-94
2021/01/28 03:31:40;;;;;;;8.52;5.43;;;;;;;-145.61;100.00;68426.72;4957702;29;20024;-94
2021/01/28 03:34:06;;;;;;;9.20;5.63;;;;;;;-145.61;100.00;68426.72;4957776;29;20032;-95
2021/01/28 03:36:31;;;;;;;9.15;5.30;;;;;;;-145.61;100.00;68426.72;4941528;29;20078;-95
2021/01/28 03:38:57;;;;;;;10.82;5.43;;;;;;;-145.61;100.00;68426.72;4941548;29;20024;-94
2021/01/28 03:41:23;;;;;;;10.77;5.80;;;;;;;-145.61;100.00;68426.72;4941361;29;20131;-94
2021/01/28 03:43:48;;;;;;;7.85;5.20;;;;;;;-145.61;100.00;68426.72;4957642;28;20084;-95
2021/01/28 03:46:14;;;;;;;7.47;5.68;;;;;;;-145.61;100.00;68426.72;4941681;29;20431;-93
2021/01/28 03:48:39;;;;;;;12.55;6.00;;;;;;;-145.61;100.00;68426.72;4941565;29;20110;-96
2021/01/28 03:51:06;;;;;;;8.65;5.45;;;;;;;-145.61;100.00;68426.72;4941534;29;20024;-94
2021/01/28 03:53:31;;;;;;;7.63;5.32;;;;;;;-145.61;100.00;68426.72;4957518;28;20090;-95
2021/01/28 03:55:57;;;;;;;9.65;5.60;;;;;;;-145.61;100.00;68426.72;4941450;29;20032;-94
2021/01/28 03:58:23;;;;;;;10.65;6.85;;;;;;;-145.61;100.00;68426.72;4957786;28;20026;-95
2021/01/28 04:00:48;;;;;;;11.02;7.43;;;;;;;-145.61;100.00;68426.72;4941263;29;20034;-93
2021/01/28 04:03:14;;;;;;;10.35;6.88;;;;;;;-145.61;100.00;68426.72;4941217;29;20424;-94
2021/01/28 04:05:40;;;;;;;14.45;7.43;;;;;;;-145.61;100.00;68426.72;4941051;29;20116;-94
2021/01/28 04:08:05;;;;;;;10.23;6.30;;;;;;;-145.61;100.00;68426.72;4941067;29;20424;-94
2021/01/28 04:10:33;;;;;;;10.20;6.13;;;;;;;-145.61;100.00;68426.72;4941022;29;20393;-94
2021/01/28 04:13:00;;;;;;;11.70;6.28;;;;;;;-145.61;100.00;68426.72;4940986;29;20027;-95
2021/01/28 04:15:26;;;;;;;11.00;6.57;;;;;;;-145.61;100.00;68426.72;4940925;29;20030;-95
2021/01/28 04:17:52;;;;;;;20.55;11.60;;;;;;;-145.61;100.00;68426.72;4940851;29;20049;-93
2021/01/28 04:20:23;;;;;;;20.23;11.90;;;;;;;-145.61;100.00;68426.72;4956795;29;20042;-93
2021/01/28 04:22:49;;;;;;;17.73;11.32;;;;;;;-145.61;100.00;68426.72;4940838;29;20028;-94
2021/01/28 04:25:16;;;;;;;18.75;11.63;;;;;;;-145.61;100.00;68426.72;4940672;29;20036;-93
2021/01/28 04:27:42;;;;;;;22.33;11.93;;;;;;;-145.61;100.00;68426.72;4940636;29;20031;-94
2021/01/28 04:30:11;;;;;;;19.95;11.88;;;;;;;-145.61;100.00;68426.72;4940691;29;20078;-94
2021/01/28 04:32:37;;;;;;;26.35;14.30;;;;;;;-145.61;100.00;68426.72;4955730;28;20055;-94
2021/01/28 04:35:04;;;;;;;25.48;15.30;;;;;;;-145.61;100.00;68426.72;4940634;29;20067;-94
2021/01/28 04:37:30;;;;;;;27.48;15.18;;;;;;;-145.61;100.00;68426.72;4940881;29;20555;-94
2021/01/28 04:39:56;;;;;;;29.50;14.93;;;;;;;-145.61;100.00;68426.72;4940329;29;20114;-93
2021/01/28 04:42:41;;;;;;;32.05;15.43;;;;;;;-145.61;100.00;68426.72;4956398;29;20408;-94
2021/01/28 04:45:07;;;;;;;28.95;14.75;;;;;;;-145.61;100.00;68426.72;4940419;29;20019;-93
2021/01/28 04:47:33;;;;;;;28.85;15.52;;;;;;;-145.61;100.00;68426.72;4941129;29;20058;-95
2021/01/28 04:49:59;;;;;;;27.75;14.48;;;;;;;-145.61;100.00;68426.72;4940305;29;20024;-94
2021/01/28 04:52:29;;;;;;;33.55;18.10;;;;;;;-145.61;100.00;68426.72;4940205;29;20035;-94
2021/01/28 04:54:56;;;;;;;47.35;21.65;;;;;;;-145.61;100.00;68426.72;4940187;29;20024;-94
2021/01/28 04:57:22;;;;;;;45.45;23.05;;;;;;;-145.61;100.00;68426.72;4956093;29;20024;-94
2021/01/28 04:59:53;;;;;;;47.22;22.73;;;;;;;-145.61;100.00;68426.72;4940117;29;20420;-93
2021/01/28 05:02:23;;;;;;;47.95;24.08;;;;;;;-145.61;100.00;68426.72;4956010;29;20027;-93
2021/01/28 05:04:55;;;;;;;50.03;27.10;;;;;;;-145.61;100.00;68426.72;4940169;29;20038;-93
2021/01/28 05:07:25;;;;;;;49.47;25.05;;;;;;;-145.61;100.00;68426.72;4939944;29;20043;-94
2021/01/28 05:10:11;;;;;;;49.75;25.35;;;;;;;-145.61;100.00;68426.72;4939960;29;20115;-93
2021/01/28 05:12:38;;;;;;;41.40;23.60;;;;;;;-145.61;100.00;68426.72;4939879;29;20073;-93
2021/01/28 05:15:17;;;;;;;29.77;17.25;;;;;;;-145.61;100.00;68426.72;4939989;29;20028;-92
2021/01/28 05:17:44;;;;;;;26.40;14.43;;;;;;;-145.61;100.00;68426.72;4955848;29;20054;-94
2021/01/28 05:20:15;;;;;;;27.13;14.70;;;;;;;-145.61;100.00;68426.72;4939776;29;20042;-91
2021/01/28 05:22:45;;;;;;;26.83;13.85;;;;;;;-145.61;100.00;68426.72;4955868;29;20031;-93
2021/01/28 05:25:14;;;;;;;24.07;13.73;;;;;;;-145.61;100.00;68426.72;4939654;29;20032;-95
2021/01/28 05:27:40;;;;;;;25.10;13.50;;;;;;;-145.61;100.00;68426.72;4939636;29;20023;-93
2021/01/28 05:30:16;;;;;;;24.15;12.85;;;;;;;-145.61;100.00;68426.72;4939811;29;20412;-94
2021/01/28 05:32:43;;;;;;;24.23;12.73;;;;;;;-145.61;100.00;68426.72;4939569;29;20024;-94
2021/01/28 05:35:21;;;;;;;36.40;19.42;;;;;;;-145.61;100.00;68426.72;4939425;29;20089;-94
2021/01/28 05:37:49;;;;;;;33.03;17.00;;;;;;;-145.61;100.00;68426.72;4939562;29;20035;-94
2021/01/28 05:40:26;;;;;;;34.63;17.50;;;;;;;-145.61;100.00;68426.72;4939281;29;20051;-94
2021/01/28 05:42:52;;;;;;;33.67;17.40;;;;;;;-145.61;100.00;68426.72;4939300;29;20028;-93
2021/01/28 05:45:23;;;;;;;44.85;22.23;;;;;;;-145.61;100.00;68426.72;4938777;29;20435;-93
2021/01/28 05:47:52;;;;;;;52.83;26.33;;;;;;;-145.61;100.00;68426.72;4939329;29;20028;-94
2021/01/28 05:50:31;;;;;;;50.35;25.63;;;;;;;-145.61;100.00;68426.72;4939272;29;20110;-94
2021/01/28 05:53:17;;;;;;;51.40;24.88;;;;;;;-145.61;100.00;68426.72;4939389;29;20023;-94
2021/01/28 05:55:45;;;;;;;50.28;25.58;;;;;;;-145.61;100.00;68426.72;4939218;29;20140;-92
2021/01/28 05:58:31;;;;;;;50.00;26.35;;;;;;;-145.61;100.00;68426.72;4955416;28;20024;-93
2021/01/28 06:01:32;;;;;;;45.72;25.20;;;;;;;-145.61;100.00;68426.72;4939101;29;20126;-94
2021/01/28 06:04:16;;;;;;;36.00;20.92;;;;;;;-145.61;100.00;68426.72;4939687;29;20050;-93
2021/01/28 06:07:10;;;;;;;48.55;23.65;;;;;;;-145.61;100.00;68426.72;4942248;29;20027;-93
2021/01/28 06:10:00;;;;;;;39.80;20.35;;;;;;;-145.61;100.00;68426.72;4939994;29;20110;-93
2021/01/28 06:13:03;;;;;;;31.42;19.35;;;;;;;-145.61;100.00;68426.72;4939598;29;20087;-95
2021/01/28 06:15:47;;;;;;;22.35;13.50;;;;;;;-145.61;100.00;68426.72;4943783;29;20032;-93
2021/01/28 06:18:30;;;;;;;20.33;11.48;;;;;;;-145.61;100.00;68426.72;4940115;29;20050;-93
2021/01/28 06:21:17;;;;;;;24.48;14.13;;;;;;;-145.61;100.00;68426.72;4939289;29;20312;-94
2021/01/28 06:24:00;;;;;;;22.42;12.73;;;;;;;-145.61;100.00;68426.72;4945343;29;20036;-93
2021/01/28 06:26:26;;;;;;;22.35;12.20;;;;;;;-145.61;100.00;68426.72;4940522;29;20151;-93
2021/01/28 06:29:25;;;;;;;16.95;10.57;;;;;;;-145.61;100.00;68426.72;4943881;29;20063;-93
2021/01/28 06:32:18;;;;;;;17.08;10.52;;;;;;;-145.61;100.00;68426.72;4940541;29;20431;-94
2021/01/28 06:35:07;;;;;;;15.80;10.60;;;;;;;-145.61;100.00;68426.72;4944611;29;20031;-93
2021/01/28 06:37:47;;;;;;;17.13;10.88;;;;;;;-145.61;100.00;68426.72;4943541;29;20028;-94
2021/01/28 06:40:21;;;;;;;17.73;11.13;;;;;;;-145.61;100.00;68426.72;4941387;29;20384;-93
2021/01/28 06:43:08;;;;;;;28.48;17.05;;;;;;;-145.61;100.00;68426.72;4943529;29;20028;-93
2021/01/28 06:45:49;;;;;;;28.02;17.27;;;;;;;-145.61;100.00;68426.72;4944022;29;20031;-93
2021/01/28 06:48:34;;;;;;;30.85;17.67;;;;;;;-145.61;100.00;68426.72;4945726;29;20028;-93
2021/01/28 06:51:29;;;;;;;29.15;17.45;;;;;;;-145.61;100.00;68426.72;4944129;29;20023;-93
2021/01/28 06:54:12;;;;;;;41.55;20.95;;;;;;;-145.61;100.00;68426.72;4943789;29;20032;-94
2021/01/28 06:56:56;;;;;;;45.63;23.98;;;;;;;-145.61;100.00;68426.72;4943588;29;20028;-93
2021/01/28 06:59:53;;;;;;;49.80;28.17;;;;;;;-145.61;100.00;68426.72;4946033;29;20035;-94
2021/01/28 07:02:49;;;;;;;47.25;27.17;;;;;;;-145.61;100.00;68426.72;4946729;29;20419;-94
2021/01/28 07:05:42;;;;;;;42.17;22.85;;;;;;;-145.61;100.00;68426.72;4946091;29;20024;-94
2021/01/28 07:08:10;;;;;;;40.10;22.60;;;;;;;-145.61;100.00;68426.72;4945222;29;20031;-93
2021/01/28 07:10:39;;;;;;;67.75;37.88;;;;;;;-145.61;100.00;68426.72;4945224;29;20032;-93
2021/01/28 07:13:10;;;;;;;75.45;39.50;;;;;;;-145.61;100.00;68426.72;4943781;29;20024;-93
2021/01/28 07:15:35;;;;;;;;;;;;;;;-145.61;100.00;68426.72;4943920;29;20027;-93
2021/01/28 07:18:34;;;;;;;53.55;31.05;;;;;;;-145.61;100.00;68426.72;4948796;29;19911;-94
2021/01/28 07:21:06;;;;;;;57.80;30.55;;;;;;;-145.61;100.00;68426.72;4934501;29;20043;-94
2021/01/28 07:23:33;;;;;;;48.42;28.13;;;;;;;-145.61;100.00;68426.72;4947403;29;20027;-94
2021/01/28 07:26:13;;;;;;;50.40;28.08;;;;;;;-145.61;100.00;68426.72;4947305;29;20167;-93
2021/01/28 07:28:42;;;;;;;29.75;17.48;;;;;;;-145.61;100.00;68426.72;4951214;29;20051;-94
2021/01/28 07:31:24;;;;;;;27.35;16.17;;;;;;;-145.61;100.00;68426.72;4949863;29;20134;-94
2021/01/28 07:34:07;;;;;;;31.17;18.30;;;;;;;-145.61;100.00;68426.72;4948223;29;20024;-94
2021/01/28 07:36:45;;;;;;;30.55;18.58;;;;;;;-145.61;100.00;68426.72;4950262;29;20090;-94
2021/01/28 07:39:29;;;;;;;31.25;18.55;;;;;;;-145.61;100.00;68426.72;4949352;29;20027;-94
2021/01/28 07:42:08;;;;;;;27.95;18.38;;;;;;;-145.61;100.00;68426.72;4949434;29;20476;-94
2021/01/28 07:44:33;;;;;;;29.25;16.63;;;;;;;-145.61;100.00;68426.72;4950496;29;20028;-94
2021/01/28 07:47:03;;;;;;;27.27;16.02;;;;;;;-145.61;100.00;68426.72;4953377;29;20364;-95
2021/01/28 07:49:35;;;;;;;16.25;10.13;;;;;;;-145.61;100.00;68426.72;4952836;29;20081;-93
2021/01/28 07:52:19;;;;;;;20.02;10.43;;;;;;;-145.61;100.00;68426.72;4942997;29;20032;-95
2021/01/28 07:54:48;;;;;;;22.65;12.60;;;;;;;-145.61;100.00;68426.72;4947604;29;20036;-94
2021/01/28 07:57:29;;;;;;;36.78;20.55;;;;;;;-145.61;100.00;68426.72;4948734;29;20036;-94
2021/01/28 07:59:57;;;;;;;32.88;20.05;;;;;;;-145.61;100.00;68426.72;4948676;29;20031;-93
2021/01/28 08:02:27;;;;;;;29.67;17.60;;;;;;;-145.61;100.00;68426.72;4946278;29;20038;-95
2021/01/28 08:04:58;;;;;;;27.20;17.15;;;;;;;-145.61;100.00;68426.72;4945588;29;20043;-95
2021/01/28 08:07:25;;;;;;;;;;;;;;;-145.61;100.00;68426.72;4944986;29;20031;-94
2021/01/28 08:09:54;;;;;;;25.70;15.15;;;;;;;-145.61;100.00;68426.72;4938083;29;19911;-95
2021/01/28 08:12:29;;;;;;;28.70;14.93;;;;;;;-145.61;100.00;68426.72;4909766;29;20033;-94
2021/01/28 08:14:55;;;;;;;28.40;15.15;;;;;;;-145.61;100.00;68426.72;4924932;29;20051;-94
2021/01/28 08:17:58;;;;;;;35.28;18.75;;;;;;;-145.61;100.00;68426.72;4943534;29;20028;-95
2021/01/28 08:20:27;;;;;;;27.40;15.77;;;;;;;-145.61;100.00;68426.72;4943300;29;20381;-94
2021/01/28 08:22:59;;;;;;;26.63;14.77;;;;;;;-145.61;100.00;68426.72;4943553;29;20031;-95
2021/01/28 08:25:27;;;;;;;28.05;15.45;;;;;;;-145.61;100.00;68426.72;4944011;29;20122;-94
2021/01/28 08:27:53;;;;;;;27.85;16.38;;;;;;;-145.61;100.00;68426.72;4944046;29;20024;-95
2021/01/28 08:30:26;;;;;;;27.77;15.70;;;;;;;-145.61;100.00;68426.72;4944070;29;20430;-94
2021/01/28 08:32:58;;;;;;;28.50;15.48;;;;;;;-145.61;100.00;68426.72;4943344;29;20023;-93
2021/01/28 08:35:26;;;;;;;29.40;17.10;;;;;;;-3.53;72.99;95574.47;4941801;29;20032;-93
2021/01/28 08:38:12;;;;;;;28.20;15.90;;;;;;;-3.53;72.99;95574.47;4941035;29;20095;-95
2021/01/28 08:40:38;;;;;;;27.10;15.85;;;;;;;-3.53;72.99;95574.47;4947420;29;20052;-95
2021/01/28 08:43:13;;;;;;;27.08;14.43;;;;;;;-3.53;72.99;95574.47;4954123;28;20035;-95
2021/01/28 08:45:39;;;;;;;31.13;15.57;;;;;;;-3.53;72.99;95574.47;4956997;29;20118;-94
2021/01/28 08:48:10;;;;;;;38.67;18.13;;;;;;;-3.91;71.45;95421.44;4976022;28;20035;-95
2021/01/28 08:50:37;;;;;;;36.35;17.65;;;;;;;-4.54;71.26;95317.84;4960167;29;20034;-95
2021/01/28 08:53:06;;;;;;;33.03;16.73;;;;;;;-3.79;70.31;95411.13;4974653;28;20027;-94
2021/01/28 08:55:37;;;;;;;42.60;17.73;;;;;;;-3.79;70.31;95411.13;4963230;28;20027;-96
2021/01/28 08:58:30;;;;;;;29.95;15.70;;;;;;;-3.79;70.31;95411.13;4942186;28;20031;-95
2021/01/28 09:00:59;;;;;;;28.15;15.30;;;;;;;-3.86;71.21;95363.41;4956373;28;20048;-94
2021/01/28 09:03:34;;;;;;;25.48;15.23;;;;;;;-3.75;70.29;95350.81;4921025;29;20421;-94
2021/01/28 09:06:01;;;;;;;29.17;14.65;;;;;;;-4.02;68.72;95323.31;4934888;29;20055;-94
2021/01/28 09:11:49;;;;;;;23.67;14.30;;;;;;;-3.96;69.26;95354.34;4922185;29;20105;-95
2021/01/28 09:14:34;;;;;;;25.00;15.00;;;;;;;-3.44;69.39;95394.25;4923530;29;20309;-95
2021/01/28 09:17:15;;;;;;;24.77;14.75;;;;;;;-4.26;68.70;95288.56;4940044;29;20042;-93
2021/01/28 09:19:52;;;;;;;30.88;16.88;;;;;;;-3.97;68.46;95336.16;4939371;29;20059;-96
2021/01/28 09:22:39;;;;;;;31.55;16.20;;;;;;;-3.47;68.44;95388.94;4940078;29;20034;-96
2021/01/28 09:25:25;;;;;;;28.83;16.67;;;;;;;-3.56;69.60;95378.78;4940141;29;20028;-95
2021/01/28 09:28:04;;;;;;;26.02;16.50;;;;;;;-3.38;69.30;95386.63;4937670;29;20343;-94
2021/01/28 09:30:40;;;;;;;30.15;15.60;;;;;;;-3.46;66.74;95374.56;4951761;29;20058;-95
2021/01/28 09:33:24;;;;;;;24.67;15.40;;;;;;;-3.52;67.28;95374.19;4939855;29;20032;-95
2021/01/28 09:36:11;;;;;;;29.50;15.32;;;;;;;-3.53;68.13;95383.31;4939580;29;20487;-95
2021/01/28 09:38:38;;;;;;;24.23;14.90;;;;;;;-3.78;70.34;95311.78;4941132;29;20401;-94
2021/01/28 09:41:19;;;;;;;29.25;15.88;;;;;;;-3.72;67.95;95312.91;4939413;29;20455;-95
2021/01/28 09:43:46;;;;;;;23.90;14.73;;;;;;;-3.80;68.56;95287.53;4968646;28;20067;-94
2021/01/28 09:46:17;;;;;;;22.67;12.85;;;;;;;-3.23;68.13;95374.75;4959220;29;20037;-94
2021/01/28 09:48:48;;;;;;;20.85;11.27;;;;;;;-3.59;66.79;95307.13;4949571;28;20027;-95
2021/01/28 09:51:25;;;;;;;19.05;11.85;;;;;;;-3.04;67.74;95356.75;4946543;29;20024;-94
2021/01/28 09:54:20;;;;;;;19.02;10.52;;;;;;;-3.14;67.67;95331.03;4939514;29;20032;-94
2021/01/28 09:56:46;;;;;;;21.15;11.10;;;;;;;-3.36;66.89;95304.66;4951788;29;20032;-96
2021/01/28 09:59:14;;;;;;;19.20;10.77;;;;;;;-2.94;67.47;95340.72;4947609;28;20420;-94
2021/01/28 10:01:40;;;;;;;22.38;11.05;;;;;;;-3.62;69.13;95242.28;4944737;29;20031;-95
2021/01/28 10:04:07;;;;;;;27.60;11.68;;;;;;;-2.78;67.60;95342.09;4938452;29;20024;-94
2021/01/28 10:06:33;;;;;;;28.02;11.25;;;;;;;-3.07;68.89;95280.50;4949483;29;20040;-95
2021/01/28 10:08:59;;;;;;;19.48;10.13;;;;;;;-3.31;69.40;95232.50;4959008;28;20042;-94
2021/01/28 10:11:26;;;;;;;16.27;10.77;;;;;;;-2.94;67.91;95289.47;4942389;29;20027;-95
2021/01/28 10:13:51;;;;;;;18.80;11.70;;;;;;;-3.05;68.18;95265.66;4936966;29;20047;-94
2021/01/28 10:16:17;;;;;;;21.00;12.52;;;;;;;-3.54;68.46;95181.91;4947312;28;20122;-93
2021/01/28 10:18:42;;;;;;;32.53;14.80;;;;;;;-3.22;69.48;95218.78;4939972;29;20054;-95
2021/01/28 10:21:08;;;;;;;28.42;15.55;;;;;;;-3.08;70.25;95223.19;4930818;29;20031;-94
2021/01/28 10:23:33;;;;;;;28.58;14.20;;;;;;;-3.11;67.81;95243.34;4934861;29;20067;-95
2021/01/28 10:25:59;;;;;;;29.65;15.38;;;;;;;-3.21;70.13;95191.81;4939527;28;20321;-94
2021/01/28 10:28:25;;;;;;;29.30;14.70;;;;;;;-2.75;69.31;95262.31;4938634;29;20028;-95
2021/01/28 10:30:50;;;;;;;37.63;17.85;;;;;;;-2.96;70.17;95212.81;4939218;29;20204;-94
2021/01/28 10:33:16;;;;;;;25.38;16.30;;;;;;;-2.95;70.16;95222.28;4952071;29;20035;-95
2021/01/28 10:35:42;;;;;;;30.15;18.00;;;;;;;-2.84;68.98;95224.81;4952275;29;20080;-94
2021/01/28 10:38:09;;;;;;;36.80;20.20;;;;;;;-2.42;70.52;95270.69;4948484;28;20028;-94
2021/01/28 10:40:34;;;;;;;27.33;16.33;;;;;;;-2.76;69.42;95217.53;4947819;29;20436;-92
2021/01/28 10:43:05;;;;;;;27.75;15.38;;;;;;;-3.00;69.39;95190.06;4946131;28;20028;-94
2021/01/28 10:45:37;;;;;;;23.88;14.63;;;;;;;-2.55;68.24;95257.16;4946668;29;20039;-93
2021/01/28 10:48:04;;;;;;;26.08;16.00;;;;;;;-2.83;71.16;95191.00;4947706;29;20420;-96
2021/01/28 10:50:32;;;;;;;24.42;16.55;;;;;;;-3.14;68.46;95161.78;4960288;28;20019;-94
2021/01/28 10:52:57;;;;;;;24.83;16.52;;;;;;;-3.06;68.93;95157.13;4946144;29;20415;-95
2021/01/28 10:55:25;;;;;;;28.17;16.42;;;;;;;-3.18;69.64;95147.78;4957857;29;20099;-94
2021/01/28 10:57:51;;;;;;;32.33;16.80;;;;;;;-2.98;70.57;95166.53;4944404;29;20118;-95
2021/01/28 11:00:18;;;;;;;33.25;18.15;;;;;;;-3.20;69.18;95110.97;4942308;29;20114;-93
2021/01/28 11:02:43;;;;;;;36.47;17.25;;;;;;;-3.03;68.85;95111.16;4938737;29;20038;-93
2021/01/28 11:05:15;;;;;;;33.30;17.25;;;;;;;-3.02;70.03;95102.03;4938579;29;20126;-95
2021/01/28 11:07:40;;;;;;;40.38;18.27;;;;;;;-2.25;70.22;95203.19;4947910;29;20357;-93
2021/01/28 11:10:08;;;;;;;29.38;17.38;;;;;;;-2.02;68.65;95199.09;4940614;29;20059;-94
2021/01/28 11:12:34;;;;;;;28.27;18.45;;;;;;;-2.59;68.12;95115.50;4943894;29;20051;-94
2021/01/28 11:14:59;;;;;;;35.08;19.88;;;;;;;-2.86;67.02;95107.53;4945408;29;20070;-94
2021/01/28 11:17:24;;;;;;;31.83;19.33;;;;;;;-2.61;67.74;95130.34;4977396;28;20019;-94
2021/01/28 11:19:50;;;;;;;34.95;19.23;;;;;;;-2.45;68.90;95159.75;4949947;29;20027;-94
2021/01/28 11:22:15;;;;;;;30.50;18.83;;;;;;;-2.58;68.06;95122.34;4943552;29;20032;-95
2021/01/28 11:24:41;;;;;;;31.40;19.90;;;;;;;-2.70;66.75;95099.72;4957068;29;20035;-95
2021/01/28 11:27:06;;;;;;;36.42;21.33;;;;;;;-2.55;67.34;95140.16;4942993;29;20392;-95
2021/01/28 11:29:31;;;;;;;33.90;20.98;;;;;;;-2.23;69.18;95168.97;4941814;29;20031;-94
2021/01/28 11:31:57;;;;;;;36.65;21.88;;;;;;;-2.56;69.18;95074.81;4938829;29;20115;-95